Main page
METAR-TAF:

METAR-TAF

Airports :

Base Aérea de Santos

Santos, São Paulo, Brazil

latitude: 23-56S, longitude: 046-18W, elevation: 3 m

Current weather observation

The report was made 3 hours and 55 minutes ago, at 23:00 UTC
Wind 2 kt from variable directions
Temperature 18°C
Humidity 100%
Pressure 1016 hPa
Visibility: 1500 m
mist

METAR: SBST 232300Z VRB02KT 1500 BR NSC 18/18 Q1016

Time: 23:55 (02:55 UTC)


TAF: missing

Weather observations and forecasts of more than 4000 airports (METAR and TAF reports).

The available stations are represented by yellow and red dots on the map.

Hover mouse over dot to see the name of the station.

Then click to see weather observations and forecasts.

To change the map : click on the green buttons with a black cross to zoom in, on the green button with a dash to zoom out, or on the green arrows for adjacent maps.


METAR-TAF: